EDHL/LBC METAR and TAF weather

Enter ICAO airport designator
Station Type Date Time Source
EDHL METAR 2020/09/22 16:50 UTC NOAA

EDHL 221650Z VRB01KT CAVOK 21/12 Q1007


Station Type Date Time Source
EDHL Decoded METAR 2020/09/22 16:50 UTC NOAA

Luebeck-Blankensee, Germany (EDHL) 53-49N 010-42E 15M
Sep 22, 2020 - 12:50 PM EDT / 2020.09.22 1650 UTC
Wind: Variable at 1 MPH (1 KT):0
Visibility: greater than 7 mile(s):0
Temperature: 69 F (21 C)
Dew Point: 53 F (12 C)
Relative Humidity: 56%
Pressure (altimeter): 29.74 in. Hg (1007 hPa)
ob: EDHL 221650Z VRB01KT CAVOK 21/12 Q1007
cycle: 17

Station Type Date Time Source
EDHL TAF 2010/02/22 14:20 UTC NOAA

METAR EDHL 221420Z 15004KT 110V180 9999 FEW039 SCT120 05/02 Q0990
RMK X

Example: see airport list